createdAt,value
2017-03-25T00:00:38.884Z,24.00
2017-03-25T00:01:39.902Z,16.00
2017-03-25T00:02:40.673Z,20.00
2017-03-25T00:03:41.444Z,18.00
2017-03-25T00:04:42.213Z,23.00
2017-03-25T00:05:42.982Z,20.00
2017-03-25T00:06:44.004Z,20.00
2017-03-25T00:07:44.775Z,20.00
2017-03-25T00:08:45.545Z,24.00
2017-03-25T00:09:46.317Z,16.00
2017-03-25T00:10:47.082Z,22.00
2017-03-25T00:11:48.104Z,34.00
2017-03-25T00:12:48.875Z,19.00
2017-03-25T00:13:49.642Z,17.00
2017-03-25T00:14:50.521Z,18.00
2017-03-25T00:15:51.268Z,19.00
2017-03-25T00:17:56.664Z,17.00
2017-03-25T00:18:57.430Z,26.00
2017-03-25T00:19:58.202Z,27.00
2017-03-25T00:20:58.972Z,24.00
2017-03-25T00:21:59.740Z,21.00
2017-03-25T00:23:00.510Z,13.00
2017-03-25T00:24:01.280Z,30.00
2017-03-25T00:25:02.048Z,17.00
2017-03-25T00:26:02.859Z,20.00
2017-03-25T00:27:03.648Z,19.00
2017-03-25T00:28:04.421Z,20.00
2017-03-25T00:29:05.191Z,22.00
2017-03-25T00:30:05.963Z,26.00
2017-03-25T00:31:06.733Z,25.00
2017-03-25T00:32:07.798Z,24.00
2017-03-25T00:33:08.570Z,27.00
2017-03-25T00:34:09.341Z,23.00
2017-03-25T00:35:10.109Z,26.00
2017-03-25T00:36:10.875Z,13.00
2017-03-25T00:37:12.128Z,26.00
2017-03-25T00:38:12.898Z,20.00
2017-03-25T00:39:13.666Z,18.00
2017-03-25T00:40:14.438Z,24.00
2017-03-25T00:41:15.208Z,22.00
2017-03-25T00:42:16.226Z,12.00
2017-03-25T00:43:16.997Z,19.00
2017-03-25T00:44:17.859Z,35.00
2017-03-25T00:45:18.608Z,19.00
2017-03-25T00:46:19.379Z,16.00
2017-03-25T00:47:20.395Z,18.00
2017-03-25T00:48:21.164Z,12.00
2017-03-25T00:49:21.930Z,13.00
2017-03-25T00:50:22.697Z,22.00
2017-03-25T00:51:23.466Z,14.00
2017-03-25T00:52:24.488Z,23.00
2017-03-25T00:53:25.252Z,14.00
2017-03-25T00:54:26.021Z,18.00
2017-03-25T00:55:26.793Z,24.00
2017-03-25T00:56:27.559Z,27.00
2017-03-25T00:57:28.627Z,12.00
2017-03-25T00:58:29.393Z,18.00
2017-03-25T00:59:30.163Z,14.00
2017-03-25T01:00:30.933Z,14.00
2017-03-25T01:01:31.699Z,17.00
2017-03-25T01:02:32.720Z,17.00
2017-03-25T01:03:33.488Z,22.00
2017-03-25T01:04:34.441Z,22.00
2017-03-25T01:05:35.214Z,15.00
2017-03-25T01:06:35.978Z,13.00
2017-03-25T01:07:36.999Z,14.00
2017-03-25T01:08:37.761Z,20.00
2017-03-25T01:09:38.530Z,14.00
2017-03-25T01:10:39.299Z,13.00
2017-03-25T01:11:40.070Z,19.00
2017-03-25T01:12:41.140Z,17.00
2017-03-25T01:13:41.908Z,26.00
2017-03-25T01:14:42.679Z,17.00
2017-03-25T01:15:43.446Z,14.00
2017-03-25T01:16:44.217Z,23.00
2017-03-25T01:17:45.286Z,28.00
2017-03-25T01:18:46.057Z,18.00
2017-03-25T01:19:46.822Z,14.00
2017-03-25T01:20:47.591Z,18.00
2017-03-25T01:21:48.362Z,25.00
2017-03-25T01:22:49.429Z,18.00
2017-03-25T01:23:50.198Z,19.00
2017-03-25T01:24:50.964Z,11.00
2017-03-25T01:25:51.735Z,16.00
2017-03-25T01:26:52.498Z,20.00
2017-03-25T01:27:53.565Z,12.00
2017-03-25T01:28:54.334Z,18.00
2017-03-25T01:29:55.103Z,12.00
2017-03-25T01:30:55.867Z,15.00
2017-03-25T01:31:56.633Z,26.00
2017-03-25T01:32:57.648Z,13.00
2017-03-25T01:33:58.420Z,17.00
2017-03-25T01:34:59.186Z,26.00
2017-03-25T01:35:59.954Z,17.00
2017-03-25T01:37:00.724Z,18.00
2017-03-25T01:38:01.745Z,12.00
2017-03-25T01:39:02.511Z,15.00
2017-03-25T01:40:03.278Z,13.00
2017-03-25T01:41:04.048Z,31.00
2017-03-25T01:42:04.815Z,14.00
2017-03-25T01:43:05.837Z,20.00
2017-03-25T01:44:06.602Z,20.00
2017-03-25T01:45:07.373Z,18.00
2017-03-25T01:46:08.145Z,19.00
2017-03-25T01:47:08.915Z,21.00
2017-03-25T01:48:09.929Z,21.00
2017-03-25T01:49:10.699Z,20.00
2017-03-25T01:50:11.465Z,15.00
2017-03-25T01:51:12.233Z,20.00
2017-03-25T01:52:13.000Z,19.00
2017-03-25T01:53:14.022Z,23.00
2017-03-25T01:54:14.793Z,15.00
2017-03-25T01:55:15.562Z,26.00
2017-03-25T01:56:16.330Z,18.00
2017-03-25T01:57:17.101Z,15.00
2017-03-25T01:58:18.120Z,24.00
2017-03-25T01:59:18.890Z,16.00
2017-03-25T02:00:19.660Z,25.00
2017-03-25T02:01:20.425Z,11.00
2017-03-25T02:02:21.192Z,15.00
2017-03-25T02:03:22.207Z,15.00
2017-03-25T02:04:22.974Z,19.00
2017-03-25T02:05:23.743Z,21.00
2017-03-25T02:06:24.513Z,16.00
2017-03-25T02:07:25.285Z,20.00
2017-03-25T02:08:26.297Z,19.00
2017-03-25T02:09:27.065Z,20.00
2017-03-25T02:10:27.837Z,19.00
2017-03-25T02:11:28.602Z,21.00
2017-03-25T02:12:29.371Z,23.00
2017-03-25T02:13:30.391Z,16.00
2017-03-25T02:14:31.162Z,14.00
2017-03-25T02:15:31.928Z,16.00
2017-03-25T02:16:32.699Z,12.00
2017-03-25T02:17:33.466Z,16.00
2017-03-25T02:18:34.481Z,19.00
2017-03-25T02:19:35.253Z,30.00
2017-03-25T02:20:36.018Z,25.00
2017-03-25T02:21:36.790Z,25.00
2017-03-25T02:22:37.557Z,15.00
2017-03-25T02:23:38.573Z,18.00
2017-03-25T02:24:39.345Z,17.00
2017-03-25T02:25:40.112Z,20.00
2017-03-25T02:26:40.882Z,38.00
2017-03-25T02:27:41.649Z,18.00
2017-03-25T02:28:42.667Z,26.00
2017-03-25T02:29:43.435Z,13.00
2017-03-25T02:30:44.202Z,16.00
2017-03-25T02:31:44.972Z,18.00
2017-03-25T02:32:45.738Z,19.00
2017-03-25T02:33:46.756Z,16.00
2017-03-25T02:34:47.525Z,20.00
2017-03-25T02:35:48.298Z,26.00
2017-03-25T02:36:49.067Z,16.00
2017-03-25T02:37:49.831Z,14.00
2017-03-25T02:38:50.854Z,27.00
2017-03-25T02:39:51.623Z,16.00
2017-03-25T02:40:52.393Z,26.00
2017-03-25T02:41:53.164Z,25.00
2017-03-25T02:42:53.927Z,21.00
2017-03-25T02:43:54.948Z,18.00
2017-03-25T02:44:55.718Z,25.00
2017-03-25T02:45:56.489Z,26.00
2017-03-25T02:46:57.255Z,16.00
2017-03-25T02:47:58.023Z,21.00
2017-03-25T02:48:59.038Z,11.00
2017-03-25T02:49:59.811Z,20.00
2017-03-25T02:51:00.586Z,16.00
2017-03-25T02:52:01.347Z,21.00
2017-03-25T02:53:02.116Z,17.00
2017-03-25T02:54:03.132Z,29.00
2017-03-25T02:55:03.900Z,35.00
2017-03-25T02:56:04.668Z,17.00
2017-03-25T02:57:05.690Z,31.00
2017-03-25T02:58:06.460Z,19.00
2017-03-25T02:59:07.230Z,22.00
2017-03-25T03:00:07.996Z,15.00
2017-03-25T03:01:08.770Z,18.00
2017-03-25T03:02:09.783Z,24.00
2017-03-25T03:03:10.554Z,15.00
2017-03-25T03:04:11.330Z,14.00
2017-03-25T03:05:12.101Z,27.00
2017-03-25T03:06:12.870Z,20.00
2017-03-25T03:07:14.076Z,17.00
2017-03-25T03:08:14.847Z,17.00
2017-03-25T03:09:15.620Z,18.00
2017-03-25T03:10:16.390Z,28.00
2017-03-25T03:11:17.159Z,15.00
2017-03-25T03:12:18.140Z,22.00
2017-03-25T03:13:18.907Z,22.00
2017-03-25T03:14:19.680Z,14.00
2017-03-25T03:15:20.453Z,20.00
2017-03-25T03:16:21.216Z,14.00
2017-03-25T03:17:22.239Z,18.00
2017-03-25T03:18:23.005Z,18.00
2017-03-25T03:19:23.776Z,18.00
2017-03-25T03:20:24.544Z,18.00
2017-03-25T03:21:25.311Z,16.00
2017-03-25T03:22:26.335Z,18.00
2017-03-25T03:23:27.103Z,24.00
2017-03-25T03:24:27.874Z,17.00
2017-03-25T03:25:28.646Z,23.00
2017-03-25T03:26:29.610Z,18.00
2017-03-25T03:27:30.627Z,18.00
2017-03-25T03:28:31.399Z,47.00
2017-03-25T03:29:32.164Z,18.00
2017-03-25T03:30:32.936Z,16.00
2017-03-25T03:31:33.708Z,20.00
2017-03-25T03:32:34.724Z,22.00
2017-03-25T03:33:35.493Z,17.00
2017-03-25T03:34:36.262Z,26.00
2017-03-25T03:35:37.029Z,21.00
2017-03-25T03:36:37.797Z,16.00
2017-03-25T03:37:38.815Z,15.00
2017-03-25T03:38:39.587Z,24.00
2017-03-25T03:39:40.355Z,25.00
2017-03-25T03:40:41.124Z,28.00
2017-03-25T03:41:41.893Z,23.00
2017-03-25T03:42:42.913Z,30.00
2017-03-25T03:43:43.679Z,33.00
2017-03-25T03:44:44.450Z,26.00
2017-03-25T03:45:45.412Z,14.00
2017-03-25T03:46:46.184Z,19.00
2017-03-25T03:47:47.202Z,24.00
2017-03-25T03:48:47.972Z,17.00
2017-03-25T03:49:48.740Z,21.00
2017-03-25T03:50:49.509Z,17.00
2017-03-25T03:51:50.275Z,26.00
2017-03-25T03:52:51.299Z,21.00
2017-03-25T03:53:52.070Z,22.00
2017-03-25T03:54:52.835Z,27.00
2017-03-25T03:55:53.609Z,18.00
2017-03-25T03:56:54.377Z,16.00
2017-03-25T03:57:55.398Z,24.00
2017-03-25T03:58:56.165Z,18.00
2017-03-25T03:59:56.937Z,23.00
2017-03-25T04:00:57.704Z,24.00
2017-03-25T04:01:58.471Z,22.00
2017-03-25T04:02:59.499Z,23.00
2017-03-25T04:04:00.264Z,31.00
2017-03-25T04:05:01.036Z,26.00
2017-03-25T04:06:01.806Z,33.00
2017-03-25T04:07:02.582Z,26.00
2017-03-25T04:08:03.596Z,20.00
2017-03-25T04:09:04.367Z,20.00
2017-03-25T04:10:05.138Z,17.00
2017-03-25T04:11:05.909Z,19.00
2017-03-25T04:12:06.678Z,29.00
2017-03-25T04:13:07.702Z,32.00
2017-03-25T04:14:08.473Z,26.00
2017-03-25T04:15:09.244Z,22.00
2017-03-25T04:16:10.013Z,37.00
2017-03-25T04:17:10.780Z,15.00
2017-03-25T04:18:11.797Z,33.00
2017-03-25T04:19:12.567Z,25.00
2017-03-25T04:20:13.336Z,19.00
2017-03-25T04:21:14.102Z,22.00
2017-03-25T04:22:14.871Z,20.00
2017-03-25T04:23:15.892Z,18.00
2017-03-25T04:24:16.662Z,18.00
2017-03-25T04:25:17.430Z,31.00
2017-03-25T04:26:18.203Z,18.00
2017-03-25T04:27:18.975Z,36.00
2017-03-25T04:28:20.001Z,25.00
2017-03-25T04:29:20.763Z,31.00
2017-03-25T04:30:21.531Z,16.00
2017-03-25T04:31:22.304Z,23.00
2017-03-25T04:32:23.072Z,27.00
2017-03-25T04:33:24.090Z,22.00
2017-03-25T04:34:24.859Z,25.00
2017-03-25T04:35:25.629Z,21.00
2017-03-25T04:36:26.397Z,20.00
2017-03-25T04:37:27.165Z,20.00
2017-03-25T04:38:28.188Z,36.00
2017-03-25T04:39:28.956Z,19.00
2017-03-25T04:40:29.724Z,24.00
2017-03-25T04:41:30.493Z,25.00
2017-03-25T04:42:31.262Z,30.00
2017-03-25T04:43:32.283Z,20.00
2017-03-25T04:44:33.048Z,21.00
2017-03-25T04:45:33.819Z,30.00
2017-03-25T04:46:34.684Z,23.00
2017-03-25T04:47:35.509Z,18.00
2017-03-25T04:48:36.596Z,23.00
2017-03-25T04:49:37.369Z,22.00
2017-03-25T04:50:38.135Z,19.00
2017-03-25T04:51:38.910Z,28.00
2017-03-25T04:52:39.674Z,30.00
2017-03-25T04:53:40.805Z,24.00
2017-03-25T04:54:42.597Z,22.00
2017-03-25T04:55:43.380Z,26.00
2017-03-25T04:56:44.254Z,29.00
2017-03-25T04:57:45.039Z,22.00
2017-03-25T04:58:46.314Z,28.00
2017-03-25T04:59:47.130Z,25.00
2017-03-25T05:00:48.827Z,28.00
2017-03-25T05:01:49.718Z,28.00
2017-03-25T05:02:50.576Z,25.00
2017-03-25T05:03:51.637Z,22.00
2017-03-25T05:04:52.496Z,24.00
2017-03-25T05:05:53.274Z,21.00
2017-03-25T05:06:54.044Z,22.00
2017-03-25T05:07:54.851Z,21.00
2017-03-25T05:08:55.997Z,19.00
2017-03-25T05:09:56.846Z,27.00
2017-03-25T05:10:57.611Z,29.00
2017-03-25T05:11:58.383Z,21.00
2017-03-25T05:12:59.150Z,28.00
2017-03-25T05:14:00.173Z,37.00
2017-03-25T05:15:00.947Z,23.00
2017-03-25T05:16:01.721Z,21.00
2017-03-25T05:17:02.504Z,27.00
2017-03-25T05:18:03.261Z,36.00
2017-03-25T05:19:04.282Z,28.00
2017-03-25T05:20:05.112Z,32.00
2017-03-25T05:21:05.882Z,35.00
2017-03-25T05:22:06.669Z,23.00
2017-03-25T05:23:07.469Z,28.00
2017-03-25T05:24:08.492Z,28.00
2017-03-25T05:25:09.263Z,33.00
2017-03-25T05:26:10.038Z,20.00
2017-03-25T05:27:10.907Z,36.00
2017-03-25T05:28:11.637Z,34.00
2017-03-25T05:29:12.661Z,37.00
2017-03-25T05:30:13.473Z,19.00
2017-03-25T05:31:14.244Z,28.00
2017-03-25T05:32:15.051Z,32.00
2017-03-25T05:33:15.916Z,33.00
2017-03-25T05:34:16.940Z,25.00
2017-03-25T05:35:17.713Z,32.00
2017-03-25T05:36:18.484Z,30.00
2017-03-25T05:37:19.254Z,29.00
2017-03-25T05:38:21.039Z,30.00
2017-03-25T05:39:22.067Z,22.00
2017-03-25T05:40:22.842Z,24.00
2017-03-25T05:41:23.616Z,37.00
2017-03-25T05:42:24.386Z,23.00
2017-03-25T05:43:25.156Z,35.00
2017-03-25T05:44:26.186Z,23.00
2017-03-25T05:45:26.993Z,27.00
2017-03-25T05:46:27.765Z,25.00
2017-03-25T05:47:28.630Z,31.00
2017-03-25T05:48:29.423Z,26.00
2017-03-25T05:49:30.590Z,26.00
2017-03-25T05:50:31.382Z,25.00
2017-03-25T05:51:32.177Z,38.00
2017-03-25T05:52:32.947Z,26.00
2017-03-25T05:53:33.720Z,28.00
2017-03-25T05:54:34.739Z,34.00
2017-03-25T05:55:35.514Z,29.00
2017-03-25T05:56:36.285Z,42.00
2017-03-25T05:57:37.057Z,44.00
2017-03-25T05:58:37.829Z,38.00
2017-03-25T05:59:38.936Z,32.00
2017-03-25T06:00:39.703Z,31.00
2017-03-25T06:01:40.479Z,27.00
2017-03-25T06:02:41.254Z,31.00
2017-03-25T06:03:42.107Z,26.00
2017-03-25T06:04:43.134Z,24.00
2017-03-25T06:05:43.900Z,35.00
2017-03-25T06:06:44.675Z,28.00
2017-03-25T06:07:45.450Z,30.00
2017-03-25T06:08:46.222Z,33.00
2017-03-25T06:09:47.246Z,31.00
2017-03-25T06:10:48.019Z,21.00
2017-03-25T06:11:48.791Z,24.00
2017-03-25T06:12:49.568Z,27.00
2017-03-25T06:13:50.343Z,33.00
2017-03-25T06:14:51.366Z,24.00
2017-03-25T06:15:52.139Z,34.00
2017-03-25T06:16:52.917Z,31.00
2017-03-25T06:17:53.693Z,27.00
2017-03-25T06:18:54.466Z,26.00
2017-03-25T06:19:55.508Z,36.00
2017-03-25T06:20:56.263Z,32.00
2017-03-25T06:21:57.040Z,30.00
2017-03-25T06:22:57.812Z,36.00
2017-03-25T06:23:58.586Z,34.00
2017-03-25T06:24:59.616Z,40.00
2017-03-25T06:26:00.388Z,43.00
2017-03-25T06:27:01.162Z,33.00
2017-03-25T06:28:01.940Z,29.00
2017-03-25T06:29:02.712Z,39.00
2017-03-25T06:30:03.789Z,45.00
2017-03-25T06:31:04.567Z,45.00
2017-03-25T06:32:05.341Z,34.00
2017-03-25T06:33:06.120Z,48.00
2017-03-25T06:34:06.898Z,27.00
2017-03-25T06:35:07.923Z,35.00
2017-03-25T06:36:08.699Z,36.00
2017-03-25T06:37:09.478Z,29.00
2017-03-25T06:38:10.252Z,30.00
2017-03-25T06:39:11.032Z,27.00
2017-03-25T06:40:12.065Z,23.00
2017-03-25T06:41:12.839Z,34.00
2017-03-25T06:42:13.617Z,35.00
2017-03-25T06:43:14.393Z,36.00
2017-03-25T06:44:15.171Z,29.00
2017-03-25T06:45:16.198Z,33.00
2017-03-25T06:46:16.978Z,30.00
2017-03-25T06:47:17.756Z,26.00
2017-03-25T06:48:18.531Z,40.00
2017-03-25T06:49:19.308Z,28.00
2017-03-25T06:50:20.339Z,31.00
2017-03-25T06:51:21.122Z,20.00
2017-03-25T06:52:21.896Z,28.00
2017-03-25T06:53:22.680Z,25.00
2017-03-25T06:54:23.457Z,32.00
2017-03-25T06:55:24.485Z,36.00
2017-03-25T06:56:25.269Z,23.00
2017-03-25T06:57:26.041Z,22.00
2017-03-25T06:58:26.824Z,31.00
2017-03-25T06:59:27.604Z,26.00
2017-03-25T07:00:28.636Z,19.00
2017-03-25T07:01:29.414Z,23.00
2017-03-25T07:02:30.199Z,31.00
2017-03-25T07:03:30.983Z,28.00
2017-03-25T07:04:31.760Z,25.00
2017-03-25T07:05:32.795Z,25.00
2017-03-25T07:06:33.580Z,27.00
2017-03-25T07:07:34.362Z,34.00
2017-03-25T07:08:35.147Z,21.00
2017-03-25T07:09:35.929Z,36.00
2017-03-25T07:10:36.965Z,35.00
2017-03-25T07:11:37.752Z,33.00
2017-03-25T07:12:38.533Z,32.00
2017-03-25T07:13:39.321Z,27.00
2017-03-25T07:14:40.102Z,29.00
2017-03-25T07:15:41.139Z,24.00
2017-03-25T07:16:41.923Z,30.00
2017-03-25T07:17:42.706Z,28.00
2017-03-25T07:18:43.491Z,26.00
2017-03-25T07:19:44.276Z,36.00
2017-03-25T07:20:45.315Z,22.00
2017-03-25T07:21:46.102Z,25.00
2017-03-25T07:22:46.886Z,19.00
2017-03-25T07:23:47.673Z,22.00
2017-03-25T07:24:48.457Z,22.00
2017-03-25T07:25:49.543Z,25.00
2017-03-25T07:26:50.330Z,22.00
2017-03-25T07:27:51.117Z,29.00
2017-03-25T07:28:51.902Z,22.00
2017-03-25T07:29:52.691Z,19.00
2017-03-25T07:30:53.725Z,18.00
2017-03-25T07:31:54.516Z,18.00
2017-03-25T07:32:55.300Z,26.00
2017-03-25T07:33:56.087Z,21.00
2017-03-25T07:34:56.876Z,30.00
2017-03-25T07:35:57.912Z,27.00
2017-03-25T07:36:58.700Z,22.00
2017-03-25T07:37:59.488Z,22.00
2017-03-25T07:39:00.274Z,20.00
2017-03-25T07:40:01.065Z,18.00
2017-03-25T07:41:02.154Z,28.00
2017-03-25T07:42:02.940Z,15.00
2017-03-25T07:43:03.729Z,20.00
2017-03-25T07:44:04.520Z,22.00
2017-03-25T07:45:05.311Z,26.00
2017-03-25T07:46:06.346Z,27.00
2017-03-25T07:47:07.134Z,18.00
2017-03-25T07:48:07.925Z,24.00
2017-03-25T07:49:08.713Z,23.00
2017-03-25T07:50:09.506Z,15.00
2017-03-25T07:51:10.544Z,16.00
2017-03-25T07:52:11.336Z,18.00
2017-03-25T07:53:12.133Z,13.00
2017-03-25T07:54:12.915Z,18.00
2017-03-25T07:55:13.711Z,20.00
2017-03-25T07:56:14.752Z,23.00
2017-03-25T07:57:15.548Z,21.00
2017-03-25T07:58:16.337Z,13.00
2017-03-25T07:59:17.133Z,14.00
2017-03-25T08:00:17.923Z,13.00
2017-03-25T08:01:18.967Z,18.00
2017-03-25T08:02:19.757Z,14.00
2017-03-25T08:03:20.549Z,19.00
2017-03-25T08:04:21.342Z,15.00
2017-03-25T08:05:22.138Z,13.00
2017-03-25T08:06:23.189Z,27.00
2017-03-25T08:07:23.977Z,16.00
2017-03-25T08:08:24.769Z,18.00
2017-03-25T08:09:25.562Z,29.00
2017-03-25T08:10:26.357Z,20.00
2017-03-25T08:11:27.397Z,14.00
2017-03-25T08:12:28.186Z,14.00
2017-03-25T08:13:28.987Z,14.00
2017-03-25T08:14:29.738Z,20.00
2017-03-25T08:15:30.525Z,12.00
2017-03-25T08:16:31.568Z,14.00
2017-03-25T08:17:32.359Z,15.00
2017-03-25T08:18:33.149Z,22.00
2017-03-25T08:19:33.944Z,18.00
2017-03-25T08:20:34.736Z,25.00
2017-03-25T08:21:35.776Z,16.00
2017-03-25T08:22:36.567Z,19.00
2017-03-25T08:23:37.362Z,19.00
2017-03-25T08:24:38.153Z,11.00
2017-03-25T08:25:38.945Z,14.00
2017-03-25T08:26:39.991Z,22.00
2017-03-25T08:27:40.787Z,16.00
2017-03-25T08:28:41.582Z,14.00
2017-03-25T08:29:42.372Z,13.00
2017-03-25T08:30:43.169Z,13.00
2017-03-25T08:31:44.212Z,11.00
2017-03-25T08:32:45.008Z,32.00
2017-03-25T08:33:45.804Z,16.00
2017-03-25T08:34:46.598Z,15.00
2017-03-25T08:35:47.393Z,16.00
2017-03-25T08:36:48.438Z,12.00
2017-03-25T08:37:49.228Z,14.00
2017-03-25T08:38:50.021Z,19.00
2017-03-25T08:39:50.814Z,9.00
2017-03-25T08:40:51.611Z,25.00
2017-03-25T08:41:52.656Z,11.00
2017-03-25T08:42:53.451Z,12.00
2017-03-25T08:43:54.247Z,16.00
2017-03-25T08:44:55.039Z,11.00
2017-03-25T08:45:55.836Z,12.00
2017-03-25T08:46:56.879Z,16.00
2017-03-25T08:47:57.671Z,24.00
2017-03-25T08:48:58.469Z,15.00
2017-03-25T08:49:59.263Z,15.00
2017-03-25T08:51:00.055Z,12.00
2017-03-25T08:52:01.100Z,23.00
2017-03-25T08:53:01.891Z,9.00
2017-03-25T08:54:02.687Z,12.00
2017-03-25T08:55:03.482Z,14.00
2017-03-25T08:56:04.276Z,18.00
2017-03-25T08:57:05.508Z,10.00
2017-03-25T08:58:06.304Z,10.00
2017-03-25T08:59:07.287Z,18.00
2017-03-25T09:00:08.084Z,13.00
2017-03-25T09:01:08.876Z,8.00
2017-03-25T09:02:09.919Z,13.00
2017-03-25T09:03:10.713Z,14.00
2017-03-25T09:04:11.507Z,12.00
2017-03-25T09:05:12.306Z,14.00
2017-03-25T09:06:13.103Z,15.00
2017-03-25T09:07:14.148Z,12.00
2017-03-25T09:08:14.941Z,16.00
2017-03-25T09:09:15.739Z,10.00
2017-03-25T09:10:16.540Z,14.00
2017-03-25T09:11:17.335Z,15.00
2017-03-25T09:12:18.377Z,12.00
2017-03-25T09:13:19.178Z,15.00
2017-03-25T09:14:19.972Z,16.00
2017-03-25T09:15:20.774Z,13.00
2017-03-25T09:16:21.566Z,14.00
2017-03-25T09:17:22.613Z,16.00
2017-03-25T09:18:23.410Z,16.00
2017-03-25T09:19:24.207Z,20.00
2017-03-25T09:20:25.007Z,14.00
2017-03-25T09:21:25.798Z,14.00
2017-03-25T09:22:26.843Z,11.00
2017-03-25T09:23:27.639Z,11.00
2017-03-25T09:24:28.431Z,9.00
2017-03-25T09:25:29.229Z,36.00
2017-03-25T09:26:30.025Z,9.00
2017-03-25T09:27:31.075Z,16.00
2017-03-25T09:28:31.872Z,11.00
2017-03-25T09:29:32.667Z,19.00
2017-03-25T09:30:33.471Z,17.00
2017-03-25T09:31:34.271Z,13.00
2017-03-25T09:32:35.319Z,14.00
2017-03-25T09:33:36.116Z,10.00
2017-03-25T09:34:36.911Z,17.00
2017-03-25T09:35:37.711Z,16.00
2017-03-25T09:36:38.508Z,15.00
2017-03-25T09:37:39.556Z,19.00
2017-03-25T09:38:40.356Z,16.00
2017-03-25T09:39:41.153Z,14.00
2017-03-25T09:40:41.952Z,30.00
2017-03-25T09:41:42.746Z,19.00
2017-03-25T09:42:43.796Z,12.00
2017-03-25T09:43:44.597Z,26.00
2017-03-25T09:44:45.401Z,35.00
2017-03-25T09:45:46.196Z,21.00
2017-03-25T09:46:46.996Z,18.00
2017-03-25T09:47:48.090Z,18.00
2017-03-25T09:48:48.894Z,21.00
2017-03-25T09:49:49.683Z,16.00
2017-03-25T09:50:50.477Z,16.00
2017-03-25T09:51:51.280Z,12.00
2017-03-25T09:52:52.322Z,23.00
2017-03-25T09:53:53.123Z,10.00
2017-03-25T09:54:53.985Z,10.00
2017-03-25T09:55:54.804Z,13.00
2017-03-25T09:56:55.605Z,14.00
2017-03-25T09:57:56.666Z,13.00
2017-03-25T09:58:57.462Z,13.00
2017-03-25T09:59:58.259Z,13.00
2017-03-25T10:00:59.052Z,15.00
2017-03-25T10:01:59.851Z,14.00
2017-03-25T10:03:00.897Z,12.00
2017-03-25T10:04:01.693Z,15.00
2017-03-25T10:05:02.493Z,15.00
2017-03-25T10:06:03.291Z,16.00
2017-03-25T10:07:04.093Z,14.00
2017-03-25T10:08:05.140Z,13.00
2017-03-25T10:09:05.949Z,20.00
2017-03-25T10:10:06.798Z,15.00
2017-03-25T10:11:07.601Z,18.00
2017-03-25T10:12:08.400Z,23.00
2017-03-25T10:13:09.451Z,15.00
2017-03-25T10:14:10.252Z,11.00
2017-03-25T10:15:11.053Z,14.00
2017-03-25T10:16:11.920Z,20.00
2017-03-25T10:17:12.720Z,18.00
2017-03-25T10:18:13.798Z,15.00
2017-03-25T10:19:14.598Z,17.00
2017-03-25T10:20:15.491Z,22.00
2017-03-25T10:21:16.505Z,21.00
2017-03-25T10:22:17.302Z,15.00
2017-03-25T10:23:18.459Z,14.00
2017-03-25T10:24:19.342Z,18.00
2017-03-25T10:25:20.138Z,19.00
2017-03-25T10:26:20.975Z,11.00
2017-03-25T10:27:21.762Z,19.00
2017-03-25T10:28:22.804Z,12.00
2017-03-25T10:29:23.678Z,18.00
2017-03-25T10:30:24.542Z,16.00
2017-03-25T10:31:25.377Z,11.00
2017-03-25T10:32:26.194Z,13.00
2017-03-25T10:33:27.342Z,11.00
2017-03-25T10:34:28.163Z,10.00
2017-03-25T10:35:28.961Z,13.00
2017-03-25T10:36:29.763Z,11.00
2017-03-25T10:37:30.562Z,15.00
2017-03-25T10:38:31.712Z,15.00
2017-03-25T10:39:32.475Z,11.00
2017-03-25T10:40:33.307Z,11.00
2017-03-25T10:41:34.158Z,15.00
2017-03-25T10:42:34.935Z,13.00
2017-03-25T10:43:36.000Z,10.00
2017-03-25T10:44:36.857Z,21.00
2017-03-25T10:45:37.666Z,15.00
2017-03-25T10:46:38.482Z,12.00
2017-03-25T10:47:39.275Z,14.00
2017-03-25T10:48:40.331Z,9.00
2017-03-25T10:49:41.134Z,15.00
2017-03-25T10:50:41.936Z,14.00
2017-03-25T10:51:42.744Z,16.00
2017-03-25T10:52:43.571Z,19.00
2017-03-25T10:53:44.633Z,12.00
2017-03-25T10:54:45.552Z,16.00
2017-03-25T10:55:46.381Z,15.00
2017-03-25T10:56:47.186Z,15.00
2017-03-25T10:57:48.102Z,15.00
2017-03-25T10:58:49.182Z,16.00
2017-03-25T10:59:49.989Z,10.00
2017-03-25T11:00:50.905Z,17.00
2017-03-25T11:01:51.677Z,14.00
2017-03-25T11:02:52.480Z,14.00
2017-03-25T11:03:53.629Z,15.00
2017-03-25T11:04:54.433Z,17.00
2017-03-25T11:05:55.240Z,18.00
2017-03-25T11:06:56.039Z,9.00
2017-03-25T11:07:56.920Z,19.00
2017-03-25T11:08:57.966Z,14.00
2017-03-25T11:09:58.787Z,11.00
2017-03-25T11:10:59.572Z,12.00
2017-03-25T11:12:00.470Z,16.00
2017-03-25T11:13:01.275Z,11.00
2017-03-25T11:14:02.339Z,10.00
2017-03-25T11:15:03.140Z,13.00
2017-03-25T11:16:04.035Z,17.00
2017-03-25T11:17:04.852Z,10.00
2017-03-25T11:18:05.763Z,11.00
2017-03-25T11:19:06.828Z,11.00
2017-03-25T11:20:07.632Z,12.00
2017-03-25T11:21:08.467Z,20.00
2017-03-25T11:22:09.266Z,13.00
2017-03-25T11:23:10.075Z,15.00
2017-03-25T11:24:11.129Z,14.00
2017-03-25T11:25:14.239Z,14.00
2017-03-25T11:26:15.124Z,10.00
2017-03-25T11:27:15.988Z,15.00
2017-03-25T11:28:16.794Z,16.00
2017-03-25T11:29:17.853Z,13.00
2017-03-25T11:30:18.663Z,14.00
2017-03-25T11:31:19.468Z,16.00
2017-03-25T11:32:20.320Z,14.00
2017-03-25T11:33:21.150Z,16.00
2017-03-25T11:34:22.277Z,17.00
2017-03-25T11:35:23.156Z,18.00
2017-03-25T11:36:23.955Z,14.00
2017-03-25T11:37:24.756Z,12.00
2017-03-25T11:38:25.560Z,14.00
2017-03-25T11:39:26.619Z,10.00
2017-03-25T11:40:27.536Z,13.00
2017-03-25T11:41:28.442Z,7.00
2017-03-25T11:42:29.265Z,8.00
2017-03-25T11:43:30.151Z,13.00
2017-03-25T11:44:31.324Z,10.00
2017-03-25T11:45:32.114Z,11.00
2017-03-25T11:46:32.939Z,5.00
2017-03-25T11:47:33.752Z,10.00
2017-03-25T11:48:34.664Z,11.00
2017-03-25T11:49:35.680Z,5.00
2017-03-25T11:50:36.485Z,7.00
2017-03-25T11:51:37.308Z,10.00
2017-03-25T11:52:38.110Z,10.00
2017-03-25T11:53:39.012Z,6.00
2017-03-25T11:54:40.216Z,8.00
2017-03-25T11:55:40.989Z,9.00
2017-03-25T11:56:41.786Z,6.00
2017-03-25T11:57:42.659Z,4.00
2017-03-25T11:58:43.546Z,7.00
2017-03-25T11:59:44.605Z,6.00
2017-03-25T12:00:45.437Z,6.00
2017-03-25T12:01:46.238Z,8.00
2017-03-25T12:02:47.042Z,4.00
2017-03-25T12:03:47.845Z,6.00
2017-03-25T12:04:48.903Z,8.00
2017-03-25T12:05:49.780Z,6.00
2017-03-25T12:06:50.586Z,6.00
2017-03-25T12:07:51.387Z,5.00
2017-03-25T12:08:52.281Z,6.00
2017-03-25T12:09:53.347Z,6.00
2017-03-25T12:10:54.157Z,7.00
2017-03-25T12:11:55.074Z,6.00
2017-03-25T12:12:55.910Z,6.00
2017-03-25T12:13:56.730Z,5.00
2017-03-25T12:14:58.006Z,3.00
2017-03-25T12:15:58.785Z,3.00
2017-03-25T12:16:59.597Z,6.00
2017-03-25T12:18:00.391Z,3.00
2017-03-25T12:19:01.314Z,4.00
2017-03-25T12:20:02.439Z,3.00
2017-03-25T12:21:03.329Z,3.00
2017-03-25T12:22:04.163Z,7.00
2017-03-25T12:23:04.971Z,5.00
2017-03-25T12:24:05.746Z,5.00
2017-03-25T12:25:06.847Z,7.00
2017-03-25T12:26:07.732Z,5.00
2017-03-25T12:27:08.547Z,4.00
2017-03-25T12:28:09.355Z,16.00
2017-03-25T12:29:10.148Z,5.00
2017-03-25T12:30:11.203Z,9.00
2017-03-25T12:31:12.003Z,3.00
2017-03-25T12:32:12.807Z,6.00
2017-03-25T12:33:13.606Z,4.00
2017-03-25T12:34:14.411Z,6.00
2017-03-25T12:35:15.463Z,5.00
2017-03-25T12:36:16.285Z,6.00
2017-03-25T12:37:17.091Z,3.00
2017-03-25T12:38:17.892Z,4.00
2017-03-25T12:39:18.697Z,4.00
2017-03-25T12:40:19.800Z,3.00
2017-03-25T12:41:20.605Z,3.00
2017-03-25T12:42:21.412Z,3.00
2017-03-25T12:43:22.216Z,8.00
2017-03-25T12:44:23.024Z,5.00
2017-03-25T12:45:24.077Z,3.00
2017-03-25T12:46:24.877Z,14.00
2017-03-25T12:47:25.677Z,6.00
2017-03-25T12:48:26.480Z,7.00
2017-03-25T12:49:27.280Z,4.00
2017-03-25T12:50:28.330Z,4.00
2017-03-25T12:51:29.132Z,5.00
2017-03-25T12:52:29.932Z,4.00
2017-03-25T12:53:30.738Z,4.00
2017-03-25T12:54:31.545Z,3.00
2017-03-25T12:55:32.601Z,3.00
2017-03-25T12:56:33.407Z,4.00
2017-03-25T12:57:34.213Z,6.00
2017-03-25T12:58:35.013Z,3.00
2017-03-25T12:59:35.813Z,3.00
2017-03-25T13:00:36.866Z,5.00
2017-03-25T13:01:37.675Z,3.00
2017-03-25T13:02:38.660Z,6.00
2017-03-25T13:03:39.462Z,4.00
2017-03-25T13:04:40.285Z,4.00
2017-03-25T13:05:41.361Z,9.00
2017-03-25T13:06:42.164Z,4.00
2017-03-25T13:07:42.970Z,3.00